createdAt,value
2018-11-23T00:02:27.144Z,82.30
2018-11-23T00:04:54.577Z,81.90
2018-11-23T00:07:22.024Z,81.80
2018-11-23T00:09:49.449Z,81.50
2018-11-23T00:12:16.921Z,81.40
2018-11-23T00:14:44.357Z,81.40
2018-11-23T00:17:11.886Z,82.10
2018-11-23T00:19:39.345Z,82.50
2018-11-23T00:22:06.783Z,82.40
2018-11-23T00:24:34.222Z,81.90
2018-11-23T00:27:01.657Z,82.00
2018-11-23T00:29:29.321Z,81.80
2018-11-23T00:31:56.789Z,81.80
2018-11-23T00:34:24.261Z,82.10
2018-11-23T00:36:51.698Z,81.80
2018-11-23T00:39:19.162Z,82.40
2018-11-23T00:41:46.584Z,82.40
2018-11-23T00:44:14.044Z,81.90
2018-11-23T00:46:41.485Z,81.90
2018-11-23T00:49:08.926Z,81.50
2018-11-23T00:51:36.511Z,81.50
2018-11-23T00:54:04.081Z,81.90
2018-11-23T00:56:31.542Z,82.40
2018-11-23T00:58:59.013Z,82.50
2018-11-23T01:01:26.487Z,82.70
2018-11-23T01:03:53.930Z,82.90
2018-11-23T01:06:21.396Z,83.10
2018-11-23T01:08:48.842Z,83.30
2018-11-23T01:11:16.321Z,83.40
2018-11-23T01:13:43.809Z,83.40
2018-11-23T01:16:11.274Z,83.00
2018-11-23T01:18:38.734Z,82.90
2018-11-23T01:21:06.182Z,82.50
2018-11-23T01:23:33.633Z,82.50
2018-11-23T01:26:01.104Z,82.40
2018-11-23T01:28:28.571Z,82.40
2018-11-23T01:30:56.019Z,81.90
2018-11-23T01:33:23.490Z,81.90
2018-11-23T01:35:50.946Z,82.30
2018-11-23T01:38:18.519Z,82.40
2018-11-23T01:40:46.018Z,82.60
2018-11-23T01:43:13.561Z,82.90
2018-11-23T01:45:41.025Z,83.30
2018-11-23T01:48:08.506Z,83.00
2018-11-23T01:50:35.941Z,83.60
2018-11-23T01:53:03.409Z,84.00
2018-11-23T01:55:31.021Z,83.90
2018-11-23T01:57:58.450Z,83.40
2018-11-23T02:00:25.913Z,83.80
2018-11-23T02:02:53.394Z,83.40
2018-11-23T02:05:20.833Z,83.20
2018-11-23T02:07:48.294Z,83.00
2018-11-23T02:10:15.713Z,83.00
2018-11-23T02:12:43.219Z,83.30
2018-11-23T02:15:12.046Z,83.30
2018-11-23T02:17:39.509Z,83.40
2018-11-23T02:20:09.145Z,83.30
2018-11-23T02:22:36.594Z,83.10
2018-11-23T02:25:04.114Z,83.40
2018-11-23T02:27:31.558Z,82.80
2018-11-23T02:29:59.009Z,83.40
2018-11-23T02:32:26.466Z,83.30
2018-11-23T02:34:53.905Z,83.10
2018-11-23T02:37:21.405Z,83.60
2018-11-23T02:39:48.793Z,84.10
2018-11-23T02:42:16.242Z,84.30
2018-11-23T02:44:43.712Z,83.90
2018-11-23T02:47:11.146Z,83.80
2018-11-23T02:49:38.627Z,83.90
2018-11-23T02:52:06.069Z,84.30
2018-11-23T02:54:33.492Z,84.20
2018-11-23T02:57:00.974Z,84.10
2018-11-23T02:59:28.418Z,83.90
2018-11-23T03:01:55.858Z,83.80
2018-11-23T03:04:23.343Z,83.80
2018-11-23T03:06:50.777Z,83.60
2018-11-23T03:09:18.234Z,83.20
2018-11-23T03:11:45.665Z,83.60
2018-11-23T03:14:13.139Z,83.40
2018-11-23T03:16:40.598Z,83.60
2018-11-23T03:19:08.065Z,83.60
2018-11-23T03:21:35.509Z,83.90
2018-11-23T03:24:02.938Z,83.60
2018-11-23T03:26:30.629Z,83.60
2018-11-23T03:28:58.082Z,83.30
2018-11-23T03:31:25.514Z,83.80
2018-11-23T03:33:52.975Z,83.70
2018-11-23T03:36:20.425Z,83.90
2018-11-23T03:38:47.893Z,83.80
2018-11-23T03:41:15.361Z,83.30
2018-11-23T03:43:42.829Z,83.20
2018-11-23T03:46:10.284Z,83.50
2018-11-23T03:48:37.726Z,83.90
2018-11-23T03:51:05.822Z,83.80
2018-11-23T03:53:33.252Z,83.80
2018-11-23T03:56:00.759Z,83.70
2018-11-23T03:58:28.193Z,83.60
2018-11-23T04:00:55.651Z,83.40
2018-11-23T04:03:23.129Z,83.40
2018-11-23T04:05:50.623Z,83.50
2018-11-23T04:08:18.090Z,83.60
2018-11-23T04:10:45.716Z,83.20
2018-11-23T04:13:13.205Z,83.30
2018-11-23T04:15:40.672Z,83.10
2018-11-23T04:18:08.096Z,83.10
2018-11-23T04:20:35.552Z,83.00
2018-11-23T04:23:03.024Z,83.50
2018-11-23T04:25:30.457Z,83.60
2018-11-23T04:27:57.903Z,83.70
2018-11-23T04:30:25.361Z,84.00
2018-11-23T04:32:52.809Z,84.20
2018-11-23T04:35:20.270Z,84.40
2018-11-23T04:37:47.721Z,84.60
2018-11-23T04:40:15.228Z,84.30
2018-11-23T04:42:42.687Z,84.00
2018-11-23T04:45:10.161Z,83.70
2018-11-23T04:47:37.628Z,83.80
2018-11-23T04:50:06.024Z,84.00
2018-11-23T04:52:33.491Z,84.20
2018-11-23T04:55:00.942Z,83.70
2018-11-23T04:57:28.388Z,83.10
2018-11-23T04:59:55.844Z,83.20
2018-11-23T05:02:23.315Z,83.50
2018-11-23T05:04:50.956Z,83.60
2018-11-23T05:07:18.385Z,83.90
2018-11-23T05:09:45.818Z,83.40
2018-11-23T05:12:13.250Z,83.80
2018-11-23T05:14:40.717Z,83.00
2018-11-23T05:17:08.184Z,83.60
2018-11-23T05:19:35.693Z,83.70
2018-11-23T05:22:03.174Z,84.10
2018-11-23T05:24:30.789Z,83.30
2018-11-23T05:26:58.270Z,84.00
2018-11-23T05:29:25.725Z,83.80
2018-11-23T05:31:53.181Z,83.30
2018-11-23T05:34:20.662Z,83.70
2018-11-23T05:36:48.150Z,84.00
2018-11-23T05:39:15.582Z,84.00
2018-11-23T05:41:43.088Z,84.10
2018-11-23T05:44:10.554Z,83.30
2018-11-23T05:46:38.014Z,83.30
2018-11-23T05:49:05.484Z,83.90
2018-11-23T05:51:33.125Z,83.40
2018-11-23T05:54:00.550Z,83.60
2018-11-23T05:56:28.005Z,83.80
2018-11-23T05:58:55.465Z,84.10
2018-11-23T06:01:22.892Z,84.60
2018-11-23T06:03:50.317Z,84.50
2018-11-23T06:06:17.779Z,84.70
2018-11-23T06:08:45.233Z,85.30
2018-11-23T06:11:12.721Z,85.10
2018-11-23T06:13:40.157Z,84.90
2018-11-23T06:16:07.658Z,84.60
2018-11-23T06:18:35.093Z,83.90
2018-11-23T06:21:02.593Z,83.30
2018-11-23T06:23:30.034Z,83.20
2018-11-23T06:26:03.157Z,83.50
2018-11-23T06:28:30.637Z,83.70
2018-11-23T06:30:58.122Z,83.80
2018-11-23T06:33:32.430Z,84.10
2018-11-23T06:36:00.101Z,83.80
2018-11-23T06:38:27.556Z,84.20
2018-11-23T06:40:54.998Z,84.90
2018-11-23T06:43:22.437Z,85.10
2018-11-23T06:45:49.899Z,85.10
2018-11-23T06:48:18.403Z,85.30
2018-11-23T06:50:45.834Z,85.20
2018-11-23T06:53:13.296Z,85.30
2018-11-23T06:55:40.831Z,85.30
2018-11-23T06:58:08.961Z,85.00
2018-11-23T07:00:36.516Z,84.40
2018-11-23T07:03:04.026Z,84.70
2018-11-23T07:05:31.526Z,85.50
2018-11-23T07:07:59.053Z,86.00
2018-11-23T07:10:26.533Z,85.80
2018-11-23T07:12:54.638Z,85.60
2018-11-23T07:15:22.099Z,85.50
2018-11-23T07:17:49.586Z,85.20
2018-11-23T07:20:17.057Z,84.90
2018-11-23T07:22:44.538Z,84.90
2018-11-23T07:25:12.034Z,84.60
2018-11-23T07:27:39.509Z,84.10
2018-11-23T07:30:11.114Z,83.70
2018-11-23T07:32:38.647Z,84.20
2018-11-23T07:35:06.289Z,83.30
2018-11-23T07:37:33.790Z,83.60
2018-11-23T07:40:12.537Z,84.70
2018-11-23T07:42:40.013Z,84.90
2018-11-23T07:45:07.474Z,84.70
2018-11-23T07:47:34.957Z,84.40
2018-11-23T07:50:02.504Z,84.50
2018-11-23T07:52:29.975Z,84.80
2018-11-23T07:54:57.453Z,84.90
2018-11-23T07:57:24.954Z,84.90
2018-11-23T07:59:52.411Z,84.90
2018-11-23T08:02:19.874Z,84.20
2018-11-23T08:04:47.399Z,84.20
2018-11-23T08:07:15.789Z,83.40
2018-11-23T08:09:43.282Z,83.50
2018-11-23T08:12:10.716Z,83.70
2018-11-23T08:14:38.156Z,83.70
2018-11-23T08:17:05.877Z,83.80
2018-11-23T08:19:34.025Z,83.50
2018-11-23T08:22:01.467Z,83.40
2018-11-23T08:24:28.953Z,83.70
2018-11-23T08:26:56.458Z,83.70
2018-11-23T08:29:23.914Z,83.70
2018-11-23T08:31:51.405Z,83.70
2018-11-23T08:34:18.855Z,83.70
2018-11-23T08:36:46.292Z,83.40
2018-11-23T08:39:13.794Z,83.30
2018-11-23T08:41:41.258Z,83.20
2018-11-23T08:44:08.765Z,83.10
2018-11-23T08:46:36.198Z,83.00
2018-11-23T08:49:03.900Z,82.90
2018-11-23T08:51:31.382Z,82.70
2018-11-23T08:53:58.852Z,82.50
2018-11-23T08:56:26.333Z,82.20
2018-11-23T08:58:53.782Z,82.30
2018-11-23T09:01:21.290Z,82.40
2018-11-23T09:03:48.901Z,82.40
2018-11-23T09:06:16.415Z,82.20
2018-11-23T09:08:43.861Z,81.90
2018-11-23T09:11:11.396Z,81.80
2018-11-23T09:13:38.950Z,81.80
2018-11-23T09:18:40.255Z,82.00
2018-11-23T09:21:07.389Z,81.80
2018-11-23T09:23:34.951Z,81.60
2018-11-23T09:26:03.406Z,80.90
2018-11-23T09:28:30.881Z,80.90
2018-11-23T09:30:58.318Z,80.50
2018-11-23T09:33:25.857Z,80.30
2018-11-23T09:35:53.290Z,80.00
2018-11-23T09:38:20.772Z,79.50
2018-11-23T09:40:48.278Z,79.70
2018-11-23T09:43:15.788Z,79.70
2018-11-23T09:45:43.250Z,79.50
2018-11-23T09:48:10.731Z,79.20
2018-11-23T09:50:38.232Z,79.20
2018-11-23T09:53:05.734Z,79.00
2018-11-23T09:55:33.233Z,78.60
2018-11-23T09:58:00.708Z,78.40
2018-11-23T10:00:28.205Z,78.20
2018-11-23T10:02:55.685Z,78.20
2018-11-23T10:05:23.161Z,78.60
2018-11-23T10:07:50.677Z,78.50
2018-11-23T10:10:18.174Z,78.30
2018-11-23T10:12:45.701Z,78.00
2018-11-23T10:15:13.182Z,78.10
2018-11-23T10:17:40.665Z,78.10
2018-11-23T10:20:09.685Z,78.40
2018-11-23T10:22:37.162Z,78.40
2018-11-23T10:25:06.054Z,78.50
2018-11-23T10:27:33.555Z,78.40
2018-11-23T10:30:01.345Z,78.20
2018-11-23T10:32:28.525Z,78.00
2018-11-23T10:34:56.058Z,77.70
2018-11-23T10:37:23.519Z,77.60
2018-11-23T10:39:50.977Z,77.60
2018-11-23T10:42:18.413Z,77.50
2018-11-23T10:44:45.885Z,77.50
2018-11-23T10:47:13.349Z,77.40
2018-11-23T10:49:40.821Z,77.30
2018-11-23T10:52:08.284Z,76.80
2018-11-23T10:54:35.756Z,76.20
2018-11-23T10:57:03.349Z,76.50
2018-11-23T10:59:30.769Z,76.40
2018-11-23T11:01:58.222Z,76.40
2018-11-23T11:04:25.694Z,76.20
2018-11-23T11:06:53.168Z,75.80
2018-11-23T11:09:20.652Z,75.70
2018-11-23T11:11:48.176Z,75.60
2018-11-23T11:14:15.620Z,75.60
2018-11-23T11:16:43.104Z,75.80
2018-11-23T11:19:10.618Z,75.30
2018-11-23T11:21:38.109Z,75.30
2018-11-23T11:24:05.621Z,75.70
2018-11-23T11:26:33.146Z,75.60
2018-11-23T11:29:00.673Z,75.60
2018-11-23T11:31:28.201Z,75.50
2018-11-23T11:33:56.263Z,75.20
2018-11-23T11:36:23.717Z,74.90
2018-11-23T11:38:51.808Z,74.90
2018-11-23T11:41:19.286Z,74.70
2018-11-23T11:43:46.749Z,74.70
2018-11-23T11:46:14.198Z,74.90
2018-11-23T11:48:41.656Z,75.00
2018-11-23T11:51:09.182Z,74.60
2018-11-23T11:53:36.617Z,74.80
2018-11-23T11:56:04.291Z,74.70
2018-11-23T11:58:31.864Z,74.60
2018-11-23T12:00:59.334Z,74.60
2018-11-23T12:03:26.859Z,74.70
2018-11-23T12:05:54.345Z,74.70
2018-11-23T12:08:21.825Z,74.60
2018-11-23T12:10:49.282Z,74.60
2018-11-23T12:13:17.438Z,74.70
2018-11-23T12:15:45.003Z,74.40
2018-11-23T12:18:12.501Z,74.50
2018-11-23T12:20:40.065Z,74.70
2018-11-23T12:23:07.549Z,74.50
2018-11-23T12:25:35.023Z,74.50
2018-11-23T12:28:02.519Z,74.10
2018-11-23T12:30:29.969Z,74.30
2018-11-23T12:32:57.454Z,74.00
2018-11-23T12:35:24.969Z,74.20
2018-11-23T12:37:52.589Z,74.10
2018-11-23T12:40:20.276Z,74.00
2018-11-23T12:42:47.739Z,74.20
2018-11-23T12:45:15.291Z,74.30
2018-11-23T12:47:42.778Z,74.30
2018-11-23T12:50:14.488Z,74.20
2018-11-23T12:52:42.013Z,74.40
2018-11-23T12:55:09.494Z,74.20
2018-11-23T12:57:36.999Z,74.10
2018-11-23T13:00:08.854Z,74.10
2018-11-23T13:02:36.351Z,74.00
2018-11-23T13:05:04.137Z,73.90
2018-11-23T13:07:31.622Z,73.80
2018-11-23T13:09:59.136Z,73.70
2018-11-23T13:12:26.622Z,74.10
2018-11-23T13:14:54.119Z,74.30
2018-11-23T13:17:21.614Z,74.10
2018-11-23T13:19:49.099Z,74.20
2018-11-23T13:22:16.606Z,74.20
2018-11-23T13:24:44.133Z,74.20
2018-11-23T13:27:11.625Z,74.20
2018-11-23T13:29:40.057Z,74.20
2018-11-23T13:32:07.617Z,74.00
2018-11-23T13:34:35.109Z,74.00
2018-11-23T13:37:02.608Z,74.00
2018-11-23T13:39:31.139Z,74.00
2018-11-23T13:41:57.570Z,73.80
2018-11-23T13:44:25.042Z,73.80
2018-11-23T13:46:52.559Z,73.50
2018-11-23T13:49:19.990Z,73.50
2018-11-23T13:51:47.457Z,73.70
2018-11-23T13:54:14.921Z,73.80
2018-11-23T13:56:42.450Z,73.80
2018-11-23T13:59:09.976Z,74.00
2018-11-23T14:01:37.433Z,73.90
2018-11-23T14:04:05.258Z,73.80
2018-11-23T14:06:33.709Z,73.90
2018-11-23T14:09:01.252Z,73.80
2018-11-23T14:11:28.726Z,74.20
2018-11-23T14:13:56.208Z,74.20
2018-11-23T14:16:23.666Z,74.20
2018-11-23T14:18:51.235Z,74.40
2018-11-23T14:21:18.782Z,74.60
2018-11-23T14:23:46.353Z,74.90
2018-11-23T14:26:13.877Z,75.00
2018-11-23T14:28:41.364Z,74.70
2018-11-23T14:31:08.821Z,74.80
2018-11-23T14:33:36.353Z,75.20
2018-11-23T14:36:04.331Z,75.10
2018-11-23T14:38:31.867Z,75.30
2018-11-23T14:40:59.337Z,75.50
2018-11-23T14:43:26.840Z,75.60
2018-11-23T14:45:54.400Z,75.70
2018-11-23T14:48:21.882Z,75.80
2018-11-23T14:50:49.336Z,75.80
2018-11-23T14:53:16.790Z,75.90
2018-11-23T14:55:44.289Z,76.10
2018-11-23T14:58:11.760Z,76.10
2018-11-23T15:00:39.258Z,76.10
2018-11-23T15:03:06.745Z,76.30
2018-11-23T15:05:34.221Z,76.20
2018-11-23T15:08:01.691Z,76.40
2018-11-23T15:10:29.206Z,76.50
2018-11-23T15:12:56.661Z,76.50
2018-11-23T15:15:24.141Z,76.70
2018-11-23T15:17:51.791Z,76.90
2018-11-23T15:20:20.669Z,76.80
2018-11-23T15:22:50.085Z,77.00
2018-11-23T15:25:17.575Z,77.00
2018-11-23T15:27:45.570Z,77.00
2018-11-23T15:30:16.190Z,77.10
2018-11-23T15:32:43.686Z,77.20
2018-11-23T15:35:11.258Z,77.20
2018-11-23T15:37:38.758Z,77.20
2018-11-23T15:40:12.735Z,77.30
2018-11-23T15:42:40.278Z,77.60
2018-11-23T15:45:09.250Z,77.80
2018-11-23T15:47:36.722Z,77.90
2018-11-23T15:50:04.671Z,78.10
2018-11-23T15:52:32.168Z,78.10
2018-11-23T15:54:59.592Z,78.20
2018-11-23T15:57:27.098Z,78.50
2018-11-23T15:59:54.615Z,78.60
2018-11-23T16:02:22.082Z,78.60
2018-11-23T16:04:49.543Z,78.70
2018-11-23T16:07:17.001Z,78.90
2018-11-23T16:09:44.480Z,78.70
2018-11-23T16:12:11.986Z,78.50
2018-11-23T16:14:39.509Z,78.20
2018-11-23T16:17:07.010Z,78.50
2018-11-23T16:19:34.467Z,78.70
2018-11-23T16:22:01.983Z,79.20
2018-11-23T16:24:29.445Z,79.40
2018-11-23T16:26:56.966Z,79.30
2018-11-23T16:29:24.546Z,79.30
2018-11-23T16:31:52.017Z,79.60
2018-11-23T16:34:19.526Z,80.10
2018-11-23T16:36:47.009Z,80.40
2018-11-23T16:39:14.470Z,80.70
2018-11-23T16:41:42.017Z,80.50
2018-11-23T16:44:09.481Z,80.80
2018-11-23T16:46:37.421Z,80.90
2018-11-23T16:49:04.954Z,81.00
2018-11-23T16:51:32.478Z,80.80
2018-11-23T16:54:00.028Z,80.80
2018-11-23T16:56:27.527Z,80.90
2018-11-23T16:58:55.003Z,80.80
2018-11-23T17:01:22.528Z,80.90
2018-11-23T17:03:50.002Z,81.00
2018-11-23T17:06:17.510Z,81.00
2018-11-23T17:08:45.070Z,80.80
2018-11-23T17:11:12.535Z,80.70
2018-11-23T17:13:40.031Z,80.70
2018-11-23T17:16:07.507Z,80.60
2018-11-23T17:18:34.978Z,80.90
2018-11-23T17:21:02.625Z,81.30
2018-11-23T17:23:30.075Z,81.20
2018-11-23T17:25:57.579Z,81.30
2018-11-23T17:28:25.062Z,81.30
2018-11-23T17:30:52.515Z,81.30
2018-11-23T17:33:19.994Z,81.20
2018-11-23T17:35:47.477Z,81.50
2018-11-23T17:38:15.082Z,81.70
2018-11-23T17:40:42.578Z,81.70
2018-11-23T17:43:10.068Z,82.00
2018-11-23T17:45:37.977Z,81.90
2018-11-23T17:48:05.704Z,82.10
2018-11-23T17:50:33.208Z,82.20
2018-11-23T17:53:00.739Z,82.30
2018-11-23T17:55:28.211Z,82.20
2018-11-23T17:57:55.687Z,82.20
2018-11-23T18:00:23.162Z,82.20
2018-11-23T18:02:50.637Z,82.30
2018-11-23T18:05:18.109Z,82.40
2018-11-23T18:07:45.979Z,82.40
2018-11-23T18:10:14.127Z,82.50
2018-11-23T18:12:41.575Z,82.80
2018-11-23T18:15:10.534Z,82.80
2018-11-23T18:17:38.049Z,82.80
2018-11-23T18:20:08.859Z,82.60
2018-11-23T18:22:36.345Z,82.80
2018-11-23T18:25:04.586Z,82.90
2018-11-23T18:27:32.030Z,82.90
2018-11-23T18:29:59.538Z,83.10
2018-11-23T18:32:27.005Z,82.90
2018-11-23T18:34:54.482Z,82.70
2018-11-23T18:37:21.942Z,82.70
2018-11-23T18:39:49.486Z,82.80
2018-11-23T18:42:16.952Z,83.00
2018-11-23T18:44:44.462Z,83.10
2018-11-23T18:47:11.940Z,83.30
2018-11-23T18:49:39.424Z,83.00
2018-11-23T18:52:06.878Z,83.00
2018-11-23T18:54:34.350Z,82.60
2018-11-23T18:57:01.818Z,82.70
2018-11-23T18:59:29.290Z,82.70
2018-11-23T19:01:56.763Z,82.30
2018-11-23T19:04:24.218Z,82.30
2018-11-23T19:06:51.680Z,82.30
2018-11-23T19:09:19.234Z,82.30
2018-11-23T19:11:46.717Z,81.90
2018-11-23T19:14:14.188Z,82.10
2018-11-23T19:16:41.737Z,82.30
2018-11-23T19:19:09.184Z,82.30
2018-11-23T19:21:36.653Z,82.40
2018-11-23T19:24:04.394Z,81.90
2018-11-23T19:26:31.853Z,81.90
2018-11-23T19:28:59.371Z,82.10
2018-11-23T19:31:26.839Z,82.00
2018-11-23T19:33:59.126Z,82.00
2018-11-23T19:36:21.806Z,82.30
2018-11-23T19:38:49.684Z,82.70
2018-11-23T19:41:17.153Z,82.70
2018-11-23T19:43:44.624Z,82.00
2018-11-23T19:46:12.094Z,82.50
2018-11-23T19:48:39.544Z,82.80
2018-11-23T19:51:07.035Z,82.60
2018-11-23T19:53:34.485Z,82.80
2018-11-23T19:56:01.967Z,83.10
2018-11-23T19:58:29.435Z,83.00
2018-11-23T20:00:56.926Z,82.80
2018-11-23T20:03:24.422Z,82.90
2018-11-23T20:05:51.949Z,83.00
2018-11-23T20:08:19.414Z,82.90
2018-11-23T20:10:46.896Z,83.00
2018-11-23T20:13:14.353Z,82.90
2018-11-23T20:15:41.833Z,82.60
2018-11-23T20:18:09.318Z,82.70
2018-11-23T20:20:37.339Z,82.60
2018-11-23T20:23:04.856Z,82.90
2018-11-23T20:25:32.311Z,83.10
2018-11-23T20:27:59.765Z,83.50
2018-11-23T20:30:27.230Z,83.80
2018-11-23T20:32:54.699Z,84.20
2018-11-23T20:35:22.515Z,84.00
2018-11-23T20:37:50.011Z,83.70
2018-11-23T20:40:20.227Z,83.60
2018-11-23T20:42:47.714Z,83.50
2018-11-23T20:45:15.188Z,83.30
2018-11-23T20:47:42.681Z,82.90
2018-11-23T20:50:11.401Z,83.50
2018-11-23T20:52:38.871Z,83.80
2018-11-23T20:55:09.023Z,83.90
2018-11-23T20:57:36.481Z,83.70
2018-11-23T21:00:08.082Z,83.00
2018-11-23T21:02:35.566Z,83.20
2018-11-23T21:05:03.858Z,83.50
2018-11-23T21:07:31.312Z,83.60
2018-11-23T21:09:58.795Z,83.50
2018-11-23T21:12:26.301Z,83.30
2018-11-23T21:14:53.730Z,83.60
2018-11-23T21:17:21.210Z,83.50
2018-11-23T21:19:48.657Z,83.40
2018-11-23T21:22:16.123Z,83.60
2018-11-23T21:24:43.577Z,84.10
2018-11-23T21:27:11.046Z,83.70
2018-11-23T21:29:38.513Z,83.40
2018-11-23T21:32:05.976Z,83.20
2018-11-23T21:34:33.582Z,83.10
2018-11-23T21:37:01.016Z,83.30
2018-11-23T21:39:28.497Z,83.10
2018-11-23T21:41:55.944Z,82.80
2018-11-23T21:44:23.386Z,82.90
2018-11-23T21:46:50.863Z,83.10
2018-11-23T21:49:18.344Z,83.20
2018-11-23T21:51:45.802Z,83.00
2018-11-23T21:54:13.362Z,82.80
2018-11-23T21:56:40.809Z,83.00
2018-11-23T21:59:08.285Z,83.10
2018-11-23T22:01:35.763Z,83.30
2018-11-23T22:04:06.553Z,83.30
2018-11-23T22:06:30.702Z,82.80
2018-11-23T22:08:58.235Z,82.70
2018-11-23T22:11:25.689Z,82.80
2018-11-23T22:13:53.129Z,82.60
2018-11-23T22:16:20.612Z,82.80
2018-11-23T22:18:48.183Z,82.80
2018-11-23T22:21:15.611Z,82.70
2018-11-23T22:23:43.077Z,82.40
2018-11-23T22:26:10.606Z,82.80
2018-11-23T22:28:38.067Z,82.70
2018-11-23T22:31:05.789Z,82.70
2018-11-23T22:33:33.246Z,82.80
2018-11-23T22:36:00.722Z,82.80
2018-11-23T22:38:28.219Z,82.90
2018-11-23T22:40:55.742Z,82.80
2018-11-23T22:43:23.196Z,83.00
2018-11-23T22:45:50.669Z,83.00
2018-11-23T22:48:18.137Z,83.10
2018-11-23T22:50:45.651Z,83.30
2018-11-23T22:53:13.217Z,83.20
2018-11-23T22:55:40.710Z,83.00
2018-11-23T22:58:08.165Z,83.30
2018-11-23T23:00:35.657Z,83.20
2018-11-23T23:03:03.147Z,83.20
2018-11-23T23:05:30.637Z,83.40
2018-11-23T23:07:58.125Z,83.50
2018-11-23T23:10:25.585Z,83.20
2018-11-23T23:12:53.090Z,83.40
2018-11-23T23:15:20.601Z,83.00
2018-11-23T23:17:48.062Z,82.90
2018-11-23T23:20:16.796Z,82.80
2018-11-23T23:22:44.262Z,82.90
2018-11-23T23:25:12.250Z,83.00
2018-11-23T23:27:39.785Z,83.10
2018-11-23T23:30:11.108Z,82.90
2018-11-23T23:32:38.725Z,82.70
2018-11-23T23:35:07.405Z,82.80
2018-11-23T23:37:34.926Z,82.90
2018-11-23T23:40:02.457Z,82.70
2018-11-23T23:42:29.920Z,82.30
2018-11-23T23:44:57.383Z,82.40
2018-11-23T23:47:24.878Z,82.40
2018-11-23T23:49:52.452Z,82.00
2018-11-23T23:52:20.309Z,81.90
2018-11-23T23:54:47.847Z,82.30
2018-11-23T23:57:15.313Z,82.30
2018-11-23T23:59:42.884Z,82.10
